Time;durP1;ratioP1;P1;durP2;ratioP2;P2;SDS_P1;SDS_P2;PMS_P1;PMS_P2;Temp;Humidity;BMP_temperature;BMP_pressure;BME280_temperature;BME280_humidity;BME280_pressure;Samples;Min_cycle;Max_cycle;Signal;HPM_P1;HPM_P2
2022/03/25 00:00:05;;;;;;;38.15;18.42;;;;;;;;;;6176911;23;20013;-55
2022/03/25 00:02:31;;;;;;;44.22;20.33;;;;;;;;;;6177783;23;20019;-50
2022/03/25 00:04:56;;;;;;;43.70;20.15;;;;;;;;;;6176545;23;20009;-53
2022/03/25 00:07:22;;;;;;;40.45;20.20;;;;;;;;;;6177383;23;20021;-54
2022/03/25 00:09:47;;;;;;;40.17;19.60;;;;;;;;;;6174430;23;20013;-54
2022/03/25 00:12:13;;;;;;;44.63;19.15;;;;;;;;;;6170938;23;20017;-53
2022/03/25 00:14:38;;;;;;;38.30;18.25;;;;;;;;;;6178694;23;20016;-54
2022/03/25 00:17:03;;;;;;;38.78;20.35;;;;;;;;;;6204402;23;20004;-53
2022/03/25 00:19:29;;;;;;;45.20;18.05;;;;;;;;;;6205237;23;20082;-50
2022/03/25 00:21:54;;;;;;;40.95;19.65;;;;;;;;;;6204716;23;20009;-53
2022/03/25 00:24:19;;;;;;;43.15;19.65;;;;;;;;;;6206158;23;20009;-54
2022/03/25 00:26:45;;;;;;;38.67;20.02;;;;;;;;;;6205949;23;20009;-51
2022/03/25 00:29:11;;;;;;;36.47;18.98;;;;;;;;;;6206567;23;20012;-53
2022/03/25 00:31:36;;;;;;;48.17;18.73;;;;;;;;;;6205158;23;20021;-53
2022/03/25 00:34:02;;;;;;;37.63;17.35;;;;;;;;;;6207118;23;20020;-54
2022/03/25 00:36:27;;;;;;;41.55;19.00;;;;;;;;;;6204854;23;20017;-53
2022/03/25 00:38:52;;;;;;;38.55;19.13;;;;;;;;;;6207166;23;20110;-55
2022/03/25 00:41:18;;;;;;;33.58;16.27;;;;;;;;;;6204354;23;20020;-53
2022/03/25 00:43:44;;;;;;;46.95;21.90;;;;;;;;;;6206905;23;20028;-54
2022/03/25 00:46:11;;;;;;;37.42;19.25;;;;;;;;;;6206274;23;20105;-51
2022/03/25 00:48:36;;;;;;;39.90;19.85;;;;;;;;;;6206220;23;20028;-54
2022/03/25 00:51:02;;;;;;;39.60;18.85;;;;;;;;;;6180210;23;20028;-54
2022/03/25 00:53:27;;;;;;;45.75;18.60;;;;;;;;;;6204931;23;20013;-51
2022/03/25 00:55:52;;;;;;;38.15;16.92;;;;;;;;;;6206806;23;20322;-53
2022/03/25 00:58:18;;;;;;;44.20;18.63;;;;;;;;;;6205792;23;20079;-52
2022/03/25 01:00:44;;;;;;;39.08;17.70;;;;;;;;;;6207048;23;20096;-53
2022/03/25 01:03:09;;;;;;;45.25;18.77;;;;;;;;;;6205597;23;20009;-52
2022/03/25 01:05:34;;;;;;;33.25;17.00;;;;;;;;;;6180034;23;20360;-50
2022/03/25 01:08:00;;;;;;;42.45;18.80;;;;;;;;;;6205761;23;20008;-53
2022/03/25 01:10:25;;;;;;;44.05;19.55;;;;;;;;;;6205406;23;20585;-49
2022/03/25 01:12:50;;;;;;;38.42;19.98;;;;;;;;;;6206335;23;20008;-49
2022/03/25 01:15:16;;;;;;;47.60;20.92;;;;;;;;;;6201496;23;20402;-54
2022/03/25 01:17:41;;;;;;;44.35;21.73;;;;;;;;;;6179200;23;20497;-52
2022/03/25 01:20:07;;;;;;;43.92;20.35;;;;;;;;;;6205971;23;20072;-53
2022/03/25 01:22:32;;;;;;;41.40;18.70;;;;;;;;;;6205417;23;20028;-51
2022/03/25 01:24:58;;;;;;;45.05;20.90;;;;;;;;;;6205900;23;20661;-51
2022/03/25 01:27:23;;;;;;;47.08;20.25;;;;;;;;;;6202078;23;20066;-50
2022/03/25 01:29:49;;;;;;;43.30;20.63;;;;;;;;;;6206023;23;20039;-52
2022/03/25 01:32:16;;;;;;;44.40;21.10;;;;;;;;;;6177463;23;20024;-51
2022/03/25 01:34:41;;;;;;;43.83;20.30;;;;;;;;;;6206388;23;20019;-51
2022/03/25 01:37:07;;;;;;;52.78;21.15;;;;;;;;;;6205994;23;20032;-53
2022/03/25 01:39:32;;;;;;;41.05;19.42;;;;;;;;;;6206383;23;20011;-53
2022/03/25 01:41:57;;;;;;;39.97;19.40;;;;;;;;;;6178543;23;20013;-52
2022/03/25 01:44:26;;;;;;;38.92;19.08;;;;;;;;;;6205210;23;20068;-54
2022/03/25 01:46:55;;;;;;;37.85;19.88;;;;;;;;;;6205625;23;20013;-55
2022/03/25 01:49:22;;;;;;;38.35;19.25;;;;;;;;;;6206261;23;20043;-54
2022/03/25 01:51:49;;;;;;;44.72;20.27;;;;;;;;;;6206600;23;20446;-54
2022/03/25 01:54:18;;;;;;;36.88;17.80;;;;;;;;;;6205734;23;20518;-55
2022/03/25 01:56:44;;;;;;;52.60;21.00;;;;;;;;;;6179391;23;20013;-52
2022/03/25 01:59:10;;;;;;;43.20;20.42;;;;;;;;;;6204825;23;20015;-53
2022/03/25 02:01:35;;;;;;;35.40;19.63;;;;;;;;;;6205788;23;20858;-54
2022/03/25 02:04:00;;;;;;;41.15;19.95;;;;;;;;;;6206782;23;20012;-53
2022/03/25 02:06:26;;;;;;;38.17;17.95;;;;;;;;;;6179004;23;20056;-53
2022/03/25 02:08:51;;;;;;;41.38;19.02;;;;;;;;;;6206737;23;20096;-50
2022/03/25 02:11:18;;;;;;;42.22;17.60;;;;;;;;;;6205270;23;20027;-53
2022/03/25 02:13:43;;;;;;;46.95;21.10;;;;;;;;;;6203350;23;20016;-53
2022/03/25 02:16:09;;;;;;;33.83;18.00;;;;;;;;;;6206253;23;20024;-51
2022/03/25 02:18:34;;;;;;;39.92;19.15;;;;;;;;;;6205837;23;20009;-51
2022/03/25 02:20:59;;;;;;;38.47;19.23;;;;;;;;;;6207712;23;20017;-54
2022/03/25 02:23:25;;;;;;;31.83;17.38;;;;;;;;;;6205808;23;20012;-52
2022/03/25 02:25:51;;;;;;;47.33;20.50;;;;;;;;;;6208051;23;20015;-50
2022/03/25 02:28:16;;;;;;;45.75;20.00;;;;;;;;;;6178297;23;20013;-53
2022/03/25 02:30:42;;;;;;;40.55;19.08;;;;;;;;;;6205936;23;20017;-51
2022/03/25 02:33:07;;;;;;;42.33;20.33;;;;;;;;;;6208230;23;20012;-54
2022/03/25 02:35:44;;;;;;;38.88;19.80;;;;;;;;;;6206762;23;20027;-53
2022/03/25 02:38:10;;;;;;;41.85;22.00;;;;;;;;;;6207696;23;20008;-50
2022/03/25 02:40:35;;;;;;;40.80;20.00;;;;;;;;;;6205260;23;20661;-53
2022/03/25 02:43:01;;;;;;;43.03;21.95;;;;;;;;;;6208346;23;20024;-50
2022/03/25 02:45:26;;;;;;;44.70;21.33;;;;;;;;;;6205551;23;20020;-50
2022/03/25 02:47:52;;;;;;;46.50;21.77;;;;;;;;;;6208313;23;20253;-52
2022/03/25 02:50:17;;;;;;;43.22;20.95;;;;;;;;;;6205919;23;20047;-51
2022/03/25 02:52:42;;;;;;;47.95;22.42;;;;;;;;;;6207592;23;20016;-49
2022/03/25 02:55:08;;;;;;;54.60;22.55;;;;;;;;;;6207069;23;20016;-51
2022/03/25 02:57:34;;;;;;;54.30;21.77;;;;;;;;;;6206718;23;20950;-54
2022/03/25 03:00:00;;;;;;;43.63;20.58;;;;;;;;;;6206458;23;20013;-50
2022/03/25 03:02:26;;;;;;;46.10;22.88;;;;;;;;;;6207199;23;20070;-49
2022/03/25 03:04:51;;;;;;;47.85;22.80;;;;;;;;;;6207822;23;20064;-51
2022/03/25 03:07:17;;;;;;;51.92;25.25;;;;;;;;;;6206955;23;20009;-50
2022/03/25 03:09:42;;;;;;;53.97;24.73;;;;;;;;;;6206930;23;20343;-51
2022/03/25 03:12:07;;;;;;;54.35;24.02;;;;;;;;;;6205892;23;20027;-50
2022/03/25 03:14:33;;;;;;;54.75;22.80;;;;;;;;;;6178479;23;20371;-50
2022/03/25 03:16:58;;;;;;;48.88;24.02;;;;;;;;;;6205597;23;20015;-51
2022/03/25 03:19:23;;;;;;;53.63;23.38;;;;;;;;;;6206786;23;20036;-52
2022/03/25 03:21:49;;;;;;;52.70;24.90;;;;;;;;;;6206538;23;20008;-49
2022/03/25 03:24:14;;;;;;;50.17;23.90;;;;;;;;;;6181158;23;20008;-51
2022/03/25 03:26:39;;;;;;;53.08;23.42;;;;;;;;;;6203936;23;20309;-54
2022/03/25 03:29:05;;;;;;;47.35;21.52;;;;;;;;;;6207007;23;20040;-49
2022/03/25 03:31:30;;;;;;;43.10;20.48;;;;;;;;;;6205517;23;20348;-51
2022/03/25 03:33:56;;;;;;;43.28;20.52;;;;;;;;;;6207166;23;20517;-53
2022/03/25 03:36:21;;;;;;;52.40;22.52;;;;;;;;;;6204961;23;20004;-49
2022/03/25 03:38:47;;;;;;;49.55;21.95;;;;;;;;;;6207674;23;20017;-50
2022/03/25 03:41:12;;;;;;;51.33;22.98;;;;;;;;;;6205595;23;20043;-53
2022/03/25 03:43:37;;;;;;;50.90;23.58;;;;;;;;;;6206974;23;20168;-54
2022/03/25 03:46:03;;;;;;;48.78;22.73;;;;;;;;;;6205799;23;20012;-53
2022/03/25 03:48:29;;;;;;;53.10;22.00;;;;;;;;;;6207264;23;20008;-52
2022/03/25 03:50:54;;;;;;;46.17;23.50;;;;;;;;;;6209828;23;20024;-52
2022/03/25 03:53:19;;;;;;;50.83;23.20;;;;;;;;;;6207345;23;20020;-55
2022/03/25 03:55:44;;;;;;;52.10;22.70;;;;;;;;;;6208794;23;20013;-51
2022/03/25 03:58:10;;;;;;;51.83;24.80;;;;;;;;;;6180881;23;20016;-51
2022/03/25 04:00:35;;;;;;;41.17;22.38;;;;;;;;;;6182322;23;20064;-52
2022/03/25 04:03:01;;;;;;;53.13;22.90;;;;;;;;;;6208355;23;20008;-52
2022/03/25 04:05:27;;;;;;;49.22;23.90;;;;;;;;;;6209014;23;20027;-53
2022/03/25 04:07:52;;;;;;;49.03;22.38;;;;;;;;;;6208169;23;20009;-51
2022/03/25 04:10:18;;;;;;;50.45;25.10;;;;;;;;;;6207923;23;20024;-51
2022/03/25 04:12:43;;;;;;;49.92;22.02;;;;;;;;;;6208507;23;20056;-51
2022/03/25 04:15:12;;;;;;;50.53;23.83;;;;;;;;;;6206912;23;20012;-52
2022/03/25 04:17:41;;;;;;;48.20;24.10;;;;;;;;;;6206802;23;20028;-52
2022/03/25 04:20:07;;;;;;;49.97;20.40;;;;;;;;;;6208714;23;20032;-49
2022/03/25 04:22:32;;;;;;;48.95;23.15;;;;;;;;;;6206838;23;20009;-49
2022/03/25 04:24:57;;;;;;;51.28;22.63;;;;;;;;;;6204504;23;20016;-53
2022/03/25 04:27:23;;;;;;;51.25;22.95;;;;;;;;;;6207179;23;20017;-53
2022/03/25 04:29:48;;;;;;;51.60;22.45;;;;;;;;;;6207856;23;20013;-54
2022/03/25 04:32:14;;;;;;;54.22;23.40;;;;;;;;;;6205820;23;20020;-51
2022/03/25 04:34:39;;;;;;;53.30;24.10;;;;;;;;;;6208597;23;20308;-53
2022/03/25 04:37:05;;;;;;;53.08;23.17;;;;;;;;;;6208271;23;20068;-54
2022/03/25 04:39:30;;;;;;;44.97;22.00;;;;;;;;;;6208749;23;20012;-51
2022/03/25 04:41:55;;;;;;;52.42;25.05;;;;;;;;;;6208324;23;20023;-53
2022/03/25 04:44:21;;;;;;;48.25;23.33;;;;;;;;;;6208372;23;20012;-52
2022/03/25 04:46:46;;;;;;;46.65;23.92;;;;;;;;;;6207901;23;20027;-54
2022/03/25 04:49:11;;;;;;;53.88;23.85;;;;;;;;;;6208834;23;20007;-48
2022/03/25 04:51:36;;;;;;;56.67;22.52;;;;;;;;;;6208326;23;20043;-51
2022/03/25 04:54:02;;;;;;;55.15;23.50;;;;;;;;;;6208547;23;20023;-51
2022/03/25 04:56:27;;;;;;;45.20;20.13;;;;;;;;;;6207718;23;20049;-53
2022/03/25 04:58:52;;;;;;;45.00;22.35;;;;;;;;;;6208125;23;20008;-49
2022/03/25 05:01:18;;;;;;;49.85;20.05;;;;;;;;;;6206419;23;20047;-52
2022/03/25 05:03:43;;;;;;;48.85;22.20;;;;;;;;;;6208355;23;20080;-51
2022/03/25 05:06:08;;;;;;;49.95;22.88;;;;;;;;;;6208568;23;20037;-55
2022/03/25 05:08:33;;;;;;;56.35;24.02;;;;;;;;;;6208335;23;20020;-51
2022/03/25 05:10:59;;;;;;;50.92;20.85;;;;;;;;;;6208095;23;20020;-54
2022/03/25 05:13:25;;;;;;;48.47;22.80;;;;;;;;;;6205375;23;20024;-52
2022/03/25 05:15:50;;;;;;;54.25;22.48;;;;;;;;;;6208014;23;20032;-50
2022/03/25 05:18:16;;;;;;;48.25;24.55;;;;;;;;;;6207274;23;20212;-51
2022/03/25 05:20:42;;;;;;;45.15;21.90;;;;;;;;;;6209083;23;20008;-52
2022/03/25 05:23:08;;;;;;;56.90;22.35;;;;;;;;;;6208592;23;20039;-49
2022/03/25 05:25:34;;;;;;;45.67;22.48;;;;;;;;;;6208465;23;20000;-53
2022/03/25 05:27:59;;;;;;;49.95;21.45;;;;;;;;;;6207927;23;20017;-50
2022/03/25 05:30:25;;;;;;;48.95;22.50;;;;;;;;;;6204969;23;20096;-51
2022/03/25 05:32:51;;;;;;;59.53;25.38;;;;;;;;;;6207975;23;20415;-49
2022/03/25 05:35:17;;;;;;;47.42;23.45;;;;;;;;;;6205096;23;20016;-54
2022/03/25 05:37:42;;;;;;;54.08;21.83;;;;;;;;;;6181685;23;20043;-54
2022/03/25 05:40:08;;;;;;;41.72;22.42;;;;;;;;;;6203762;23;20019;-53
2022/03/25 05:42:34;;;;;;;48.60;24.10;;;;;;;;;;6204670;23;20013;-53
2022/03/25 05:44:59;;;;;;;51.13;23.42;;;;;;;;;;6174706;23;20015;-53
2022/03/25 05:47:25;;;;;;;40.45;21.15;;;;;;;;;;6203020;23;20068;-50
2022/03/25 05:49:50;;;;;;;48.20;21.73;;;;;;;;;;6203634;23;20701;-49
2022/03/25 05:52:16;;;;;;;43.95;22.02;;;;;;;;;;6203951;23;20477;-53
2022/03/25 05:54:42;;;;;;;51.85;24.23;;;;;;;;;;6203006;23;20013;-50
2022/03/25 05:57:07;;;;;;;53.67;25.58;;;;;;;;;;6204687;23;20008;-52
2022/03/25 05:59:33;;;;;;;49.58;23.85;;;;;;;;;;6177775;23;20015;-49
2022/03/25 06:01:58;;;;;;;59.83;26.48;;;;;;;;;;6176276;23;20122;-52
2022/03/25 06:04:23;;;;;;;59.47;23.77;;;;;;;;;;6203215;23;20021;-50
2022/03/25 06:06:49;;;;;;;62.08;25.73;;;;;;;;;;6202630;23;20019;-52
2022/03/25 06:09:14;;;;;;;51.15;22.75;;;;;;;;;;6204569;23;20020;-50
2022/03/25 06:11:40;;;;;;;56.30;26.02;;;;;;;;;;6179503;23;20017;-52
2022/03/25 06:14:05;;;;;;;61.28;27.52;;;;;;;;;;6205736;23;20602;-51
2022/03/25 06:16:31;;;;;;;58.78;27.17;;;;;;;;;;6203043;23;20028;-49
2022/03/25 06:18:57;;;;;;;55.15;24.15;;;;;;;;;;6177464;23;20454;-51
2022/03/25 06:21:22;;;;;;;55.40;24.50;;;;;;;;;;6205379;23;20020;-50
2022/03/25 06:23:47;;;;;;;46.08;22.52;;;;;;;;;;6206211;23;20521;-52
2022/03/25 06:26:13;;;;;;;49.88;24.38;;;;;;;;;;6205974;23;20315;-54
2022/03/25 06:28:38;;;;;;;52.92;25.77;;;;;;;;;;6202437;23;20303;-53
2022/03/25 06:31:03;;;;;;;58.42;25.70;;;;;;;;;;6207943;23;20020;-51
2022/03/25 06:33:29;;;;;;;53.80;23.77;;;;;;;;;;6205003;23;20021;-54
2022/03/25 06:35:54;;;;;;;59.90;26.05;;;;;;;;;;6203260;23;20060;-54
2022/03/25 06:38:19;;;;;;;53.20;26.17;;;;;;;;;;6204110;23;20039;-54
2022/03/25 06:40:44;;;;;;;66.85;28.50;;;;;;;;;;6195340;23;20004;-55
2022/03/25 06:43:10;;;;;;;61.65;29.23;;;;;;;;;;6207389;23;20012;-54
2022/03/25 06:45:35;;;;;;;67.78;30.23;;;;;;;;;;6207628;23;20024;-55
2022/03/25 06:48:01;;;;;;;64.32;29.23;;;;;;;;;;6207721;23;20083;-54
2022/03/25 06:50:26;;;;;;;64.90;26.80;;;;;;;;;;6207736;23;20020;-55
2022/03/25 06:52:53;;;;;;;54.03;27.80;;;;;;;;;;6182801;23;20009;-55
2022/03/25 06:55:18;;;;;;;63.38;29.08;;;;;;;;;;6208115;23;20453;-56
2022/03/25 06:57:44;;;;;;;64.90;28.33;;;;;;;;;;6203160;23;20008;-51
2022/03/25 07:00:12;;;;;;;60.40;27.33;;;;;;;;;;6203896;23;20017;-51
2022/03/25 07:02:39;;;;;;;55.58;26.77;;;;;;;;;;6176249;23;20767;-53
2022/03/25 07:05:04;;;;;;;67.30;29.05;;;;;;;;;;6204044;23;20753;-56
2022/03/25 07:07:31;;;;;;;65.40;27.70;;;;;;;;;;6205519;23;20037;-54
2022/03/25 07:09:56;;;;;;;77.38;30.15;;;;;;;;;;6202483;23;20016;-54
2022/03/25 07:12:22;;;;;;;63.33;27.55;;;;;;;;;;6202409;23;20048;-51
2022/03/25 07:14:47;;;;;;;65.55;31.50;;;;;;;;;;6203862;23;20017;-54
2022/03/25 07:17:13;;;;;;;59.58;28.98;;;;;;;;;;6203508;23;20052;-53
2022/03/25 07:19:38;;;;;;;57.72;27.67;;;;;;;;;;6204964;23;20629;-55
2022/03/25 07:22:04;;;;;;;64.47;29.90;;;;;;;;;;6205581;23;20009;-54
2022/03/25 07:24:29;;;;;;;60.75;29.83;;;;;;;;;;6203516;23;20025;-54
2022/03/25 07:26:55;;;;;;;69.45;28.73;;;;;;;;;;6176320;23;20076;-52
2022/03/25 07:29:20;;;;;;;65.60;27.73;;;;;;;;;;6176596;23;20016;-51
2022/03/25 07:31:45;;;;;;;61.15;30.95;;;;;;;;;;6207931;23;20047;-53
2022/03/25 07:34:11;;;;;;;66.25;30.52;;;;;;;;;;6206077;23;20016;-51
2022/03/25 07:36:36;;;;;;;63.72;29.85;;;;;;;;;;6210194;23;20016;-53
2022/03/25 07:39:02;;;;;;;62.08;29.42;;;;;;;;;;6207270;23;20082;-52
2022/03/25 07:41:29;;;;;;;65.05;29.55;;;;;;;;;;6209709;23;20016;-53
2022/03/25 07:43:54;;;;;;;74.88;35.00;;;;;;;;;;6208226;23;20437;-51
2022/03/25 07:46:19;;;;;;;68.68;30.08;;;;;;;;;;6207740;23;20066;-55
2022/03/25 07:48:45;;;;;;;71.78;31.08;;;;;;;;;;6176262;23;20004;-55
2022/03/25 07:51:10;;;;;;;68.50;31.80;;;;;;;;;;6201091;23;20055;-52
2022/03/25 07:53:36;;;;;;;76.60;33.83;;;;;;;;;;6181852;23;20293;-49
2022/03/25 07:56:02;;;;;;;77.60;34.13;;;;;;;;;;6207790;23;20047;-53
2022/03/25 07:58:27;;;;;;;77.53;33.10;;;;;;;;;;6208005;23;20039;-53
2022/03/25 08:00:53;;;;;;;83.82;34.60;;;;;;;;;;6210106;23;20110;-53
2022/03/25 08:03:18;;;;;;;84.57;35.92;;;;;;;;;;6205356;23;20047;-53
2022/03/25 08:05:45;;;;;;;83.18;35.72;;;;;;;;;;6208474;23;20012;-55
2022/03/25 08:08:10;;;;;;;81.70;37.20;;;;;;;;;;6206802;23;20013;-54
2022/03/25 08:10:36;;;;;;;81.20;36.05;;;;;;;;;;6206555;23;20036;-55
2022/03/25 08:13:02;;;;;;;82.47;34.35;;;;;;;;;;6207016;23;20061;-53
2022/03/25 08:15:28;;;;;;;73.75;36.00;;;;;;;;;;6203794;23;20095;-53
2022/03/25 08:17:58;;;;;;;82.45;36.22;;;;;;;;;;6209017;23;20506;-48
2022/03/25 08:20:24;;;;;;;85.20;35.58;;;;;;;;;;6178840;23;20808;-54
2022/03/25 08:22:50;;;;;;;75.57;35.13;;;;;;;;;;6208871;23;20024;-53
2022/03/25 08:28:01;;;;;;;75.78;34.75;;;;;;;;;;6206487;23;20108;-54
2022/03/25 08:30:27;;;;;;;81.35;35.35;;;;;;;;;;6207194;23;20040;-51
2022/03/25 08:32:52;;;;;;;75.43;36.08;;;;;;;;;;6179430;23;20016;-52
2022/03/25 08:35:18;;;;;;;76.32;33.47;;;;;;;;;;6200560;23;20066;-55
2022/03/25 08:37:44;;;;;;;79.20;36.65;;;;;;;;;;6201637;23;20216;-52
2022/03/25 08:40:09;;;;;;;75.15;33.47;;;;;;;;;;6166953;23;20036;-53
2022/03/25 08:42:34;;;;;;;80.30;35.45;;;;;;;;;;6169205;23;20065;-54
2022/03/25 08:45:00;;;;;;;79.68;36.65;;;;;;;;;;6203955;23;20011;-53
2022/03/25 08:47:25;;;;;;;68.13;33.78;;;;;;;;;;6199996;23;20013;-54
2022/03/25 08:49:50;;;;;;;76.13;33.95;;;;;;;;;;6177020;23;20013;-50
2022/03/25 08:52:17;;;;;;;78.95;34.90;;;;;;;;;;6200973;23;20023;-55
2022/03/25 08:54:42;;;;;;;86.35;36.00;;;;;;;;;;6204741;23;20067;-53
2022/03/25 08:57:08;;;;;;;74.03;35.05;;;;;;;;;;6197787;23;20890;-52
2022/03/25 08:59:33;;;;;;;74.63;35.28;;;;;;;;;;6204573;23;20008;-50
2022/03/25 09:01:59;;;;;;;81.70;35.22;;;;;;;;;;6199980;23;20009;-54
2022/03/25 09:04:24;;;;;;;77.50;34.83;;;;;;;;;;6192272;23;20410;-53
2022/03/25 09:06:50;;;;;;;76.65;35.08;;;;;;;;;;6198375;23;20346;-55
2022/03/25 09:09:15;;;;;;;89.07;35.45;;;;;;;;;;6199870;23;20064;-51
2022/03/25 09:11:40;;;;;;;67.70;33.28;;;;;;;;;;6204798;23;20490;-52
2022/03/25 09:14:05;;;;;;;81.18;34.30;;;;;;;;;;6200943;23;20735;-52
2022/03/25 09:16:31;;;;;;;88.57;36.28;;;;;;;;;;6203742;23;20332;-54
2022/03/25 09:18:56;;;;;;;71.35;32.95;;;;;;;;;;6202669;23;20013;-54
2022/03/25 09:21:21;;;;;;;79.20;32.50;;;;;;;;;;6203491;23;20008;-52
2022/03/25 09:23:47;;;;;;;72.47;33.92;;;;;;;;;;6201898;23;20067;-54
2022/03/25 09:26:12;;;;;;;82.85;36.92;;;;;;;;;;6203896;23;20060;-52
2022/03/25 09:28:37;;;;;;;77.93;34.83;;;;;;;;;;6202640;23;20016;-49
2022/03/25 09:31:03;;;;;;;65.53;30.48;;;;;;;;;;6204016;23;20025;-54
2022/03/25 09:33:28;;;;;;;74.13;31.38;;;;;;;;;;6201100;23;20048;-53
2022/03/25 09:35:54;;;;;;;69.07;31.75;;;;;;;;;;6199491;23;20009;-53
2022/03/25 09:38:19;;;;;;;73.85;29.35;;;;;;;;;;6202906;23;20163;-50
2022/03/25 09:40:46;;;;;;;68.10;31.50;;;;;;;;;;6202634;23;20016;-54
2022/03/25 09:43:12;;;;;;;84.97;31.88;;;;;;;;;;6202806;23;20107;-53
2022/03/25 09:45:37;;;;;;;80.50;31.75;;;;;;;;;;6204375;23;20384;-52
2022/03/25 09:48:03;;;;;;;61.42;28.85;;;;;;;;;;6202938;23;20013;-53
2022/03/25 09:50:28;;;;;;;75.65;30.33;;;;;;;;;;6204333;23;20009;-53
2022/03/25 09:52:54;;;;;;;60.05;29.15;;;;;;;;;;6203021;23;20009;-49
2022/03/25 09:55:20;;;;;;;72.45;31.98;;;;;;;;;;6200689;23;20541;-54
2022/03/25 09:57:45;;;;;;;66.68;29.98;;;;;;;;;;6203707;23;20087;-53
2022/03/25 10:00:16;;;;;;;68.53;31.23;;;;;;;;;;6199944;23;20008;-54
2022/03/25 10:02:41;;;;;;;63.28;28.00;;;;;;;;;;6204574;23;20017;-56
2022/03/25 10:05:15;;;;;;;66.78;28.55;;;;;;;;;;6201189;23;20209;-53
2022/03/25 10:07:43;;;;;;;60.42;27.77;;;;;;;;;;6202734;23;20009;-53
2022/03/25 10:10:13;;;;;;;61.40;26.85;;;;;;;;;;6199664;23;20013;-55
2022/03/25 10:12:39;;;;;;;57.35;27.70;;;;;;;;;;6204681;23;20188;-55
2022/03/25 10:15:16;;;;;;;54.85;27.17;;;;;;;;;;6202287;23;20021;-56
2022/03/25 10:17:55;;;;;;;56.58;25.23;;;;;;;;;;6204403;23;20709;-56
2022/03/25 10:20:22;;;;;;;60.13;24.85;;;;;;;;;;6201572;23;20082;-55
2022/03/25 10:22:55;;;;;;;53.63;25.27;;;;;;;;;;6202976;23;20013;-53
2022/03/25 10:25:31;;;;;;;51.28;23.75;;;;;;;;;;6200858;23;20031;-54
2022/03/25 10:27:56;;;;;;;29.40;14.38;;;;;;;;;;6204528;23;20012;-53
2022/03/25 10:30:33;;;;;;;43.25;22.00;;;;;;;;;;6201344;23;20019;-52
2022/03/25 10:33:06;;;;;;;53.05;22.08;;;;;;;;;;6178238;23;20016;-52
2022/03/25 10:35:31;;;;;;;50.40;23.95;;;;;;;;;;6204127;23;20070;-56
2022/03/25 10:37:58;;;;;;;59.63;26.63;;;;;;;;;;6203463;23;20036;-54
2022/03/25 10:40:23;;;;;;;49.95;25.25;;;;;;;;;;6196741;23;20023;-52
2022/03/25 10:43:08;;;;;;;36.00;16.50;;;;;;;;;;6207196;23;20424;-55
2022/03/25 10:45:39;;;;;;;36.78;17.95;;;;;;;;;;6206163;23;20028;-53
2022/03/25 10:48:11;;;;;;;57.53;23.88;;;;;;;;;;6198821;23;20008;-53
2022/03/25 10:50:53;;;;;;;48.65;23.55;;;;;;;;;;6178800;23;20088;-54
2022/03/25 10:53:20;;;;;;;52.50;21.80;;;;;;;;;;6203678;23;20022;-53
2022/03/25 10:55:53;;;;;;;46.15;21.55;;;;;;;;;;6204167;23;20446;-55
2022/03/25 10:58:18;;;;;;;45.65;22.35;;;;;;;;;;6202421;23;20452;-56
2022/03/25 11:00:44;;;;;;;49.13;22.42;;;;;;;;;;6198258;23;20179;-55
2022/03/25 11:03:10;;;;;;;43.85;22.83;;;;;;;;;;6205002;23;20326;-53
2022/03/25 11:05:35;;;;;;;48.47;22.65;;;;;;;;;;6175789;23;20031;-53
2022/03/25 11:08:00;;;;;;;43.42;23.13;;;;;;;;;;6205540;23;20017;-55
2022/03/25 11:10:26;;;;;;;51.85;23.70;;;;;;;;;;6205748;23;20012;-54
2022/03/25 11:12:51;;;;;;;53.88;23.90;;;;;;;;;;6207772;23;20081;-54
2022/03/25 11:15:18;;;;;;;53.88;23.50;;;;;;;;;;6204785;23;20394;-53
2022/03/25 11:17:43;;;;;;;55.78;23.65;;;;;;;;;;6207499;23;20020;-54
2022/03/25 11:20:10;;;;;;;54.67;24.35;;;;;;;;;;6179256;23;20439;-55
2022/03/25 11:22:39;;;;;;;50.45;23.80;;;;;;;;;;6207407;23;20080;-53
2022/03/25 11:25:05;;;;;;;53.83;24.10;;;;;;;;;;6178419;23;20239;-55
2022/03/25 11:27:33;;;;;;;56.53;25.30;;;;;;;;;;6203234;23;20044;-54
2022/03/25 11:30:05;;;;;;;49.90;24.33;;;;;;;;;;6206936;23;20016;-52
2022/03/25 11:32:31;;;;;;;64.18;26.80;;;;;;;;;;6204152;23;20020;-53
2022/03/25 11:34:56;;;;;;;42.88;22.77;;;;;;;;;;6208323;23;20008;-53
2022/03/25 11:37:21;;;;;;;49.50;23.58;;;;;;;;;;6204390;23;20112;-51
2022/03/25 11:39:48;;;;;;;50.70;24.48;;;;;;;;;;6207503;23;20610;-54
2022/03/25 11:42:32;;;;;;;55.42;23.90;;;;;;;;;;6178027;23;20438;-53
2022/03/25 11:45:15;;;;;;;46.40;22.48;;;;;;;;;;6204511;23;20008;-54
2022/03/25 11:47:41;;;;;;;43.60;22.42;;;;;;;;;;6207429;23;20017;-55
2022/03/25 11:50:25;;;;;;;46.88;23.23;;;;;;;;;;6205486;23;20068;-53
2022/03/25 11:52:50;;;;;;;52.72;23.80;;;;;;;;;;6206915;23;20017;-55
2022/03/25 11:55:16;;;;;;;43.28;21.90;;;;;;;;;;6203885;23;20267;-55
2022/03/25 11:57:41;;;;;;;46.72;22.92;;;;;;;;;;6206012;23;20012;-55
2022/03/25 12:00:10;;;;;;;47.55;24.48;;;;;;;;;;6180186;23;20013;-53
2022/03/25 12:02:37;;;;;;;57.28;22.95;;;;;;;;;;6207898;23;20012;-55
2022/03/25 12:05:04;;;;;;;48.42;22.42;;;;;;;;;;6206930;23;20012;-55
2022/03/25 12:07:29;;;;;;;47.40;23.80;;;;;;;;;;6206965;23;20023;-53
2022/03/25 12:09:55;;;;;;;51.22;24.75;;;;;;;;;;6207418;23;20009;-55
2022/03/25 12:12:40;;;;;;;44.97;21.60;;;;;;;;;;6206601;23;20048;-54
2022/03/25 12:15:07;;;;;;;43.08;22.10;;;;;;;;;;6204578;23;20032;-52
2022/03/25 12:17:33;;;;;;;52.92;22.77;;;;;;;;;;6207244;23;20028;-56
2022/03/25 12:20:00;;;;;;;46.13;22.77;;;;;;;;;;6178900;23;20025;-52
2022/03/25 12:22:28;;;;;;;49.47;22.77;;;;;;;;;;6207686;23;20019;-57
2022/03/25 12:24:54;;;;;;;50.47;22.75;;;;;;;;;;6207493;23;20008;-52
2022/03/25 12:27:20;;;;;;;50.05;24.38;;;;;;;;;;6207092;23;20068;-54
2022/03/25 12:29:51;;;;;;;45.10;20.90;;;;;;;;;;6205611;23;20009;-54
2022/03/25 12:32:17;;;;;;;50.22;23.83;;;;;;;;;;6205240;23;20043;-53
2022/03/25 12:34:57;;;;;;;52.72;23.67;;;;;;;;;;6152026;23;20467;-50
2022/03/25 12:37:27;;;;;;;40.58;22.60;;;;;;;;;;6206408;23;20036;-55
2022/03/25 12:39:53;;;;;;;55.38;23.92;;;;;;;;;;6205054;23;20009;-54
2022/03/25 12:42:18;;;;;;;52.75;25.38;;;;;;;;;;6207557;23;20043;-56
2022/03/25 12:44:52;;;;;;;49.40;24.83;;;;;;;;;;6207252;23;20012;-55
2022/03/25 12:47:28;;;;;;;57.03;23.77;;;;;;;;;;6205413;23;20059;-52
2022/03/25 12:49:58;;;;;;;50.72;24.85;;;;;;;;;;6207945;23;20013;-55
2022/03/25 12:52:24;;;;;;;55.15;24.90;;;;;;;;;;6204895;23;20404;-55
2022/03/25 12:54:49;;;;;;;49.97;25.48;;;;;;;;;;6207784;23;20005;-53
2022/03/25 12:57:16;;;;;;;51.92;25.52;;;;;;;;;;6178285;23;20020;-55
2022/03/25 12:59:41;;;;;;;54.70;25.92;;;;;;;;;;6208249;23;20042;-55
2022/03/25 13:02:07;;;;;;;44.25;24.15;;;;;;;;;;6205866;23;20009;-54
2022/03/25 13:04:33;;;;;;;52.28;25.33;;;;;;;;;;6206042;23;20008;-53
2022/03/25 13:06:58;;;;;;;51.47;24.60;;;;;;;;;;6205982;23;20024;-53
2022/03/25 13:09:24;;;;;;;48.40;24.02;;;;;;;;;;6201220;23;20021;-54
2022/03/25 13:11:53;;;;;;;48.85;24.75;;;;;;;;;;6201634;23;20215;-53
2022/03/25 13:14:19;;;;;;;40.70;22.27;;;;;;;;;;6201930;23;20462;-51
2022/03/25 13:16:50;;;;;;;54.53;23.15;;;;;;;;;;6198653;23;20029;-53
2022/03/25 13:19:16;;;;;;;44.30;23.45;;;;;;;;;;6206255;23;20020;-55
2022/03/25 13:21:42;;;;;;;46.50;23.58;;;;;;;;;;6203367;23;20060;-53
2022/03/25 13:24:08;;;;;;;46.83;24.10;;;;;;;;;;6202123;23;20008;-54
2022/03/25 13:26:36;;;;;;;50.42;23.52;;;;;;;;;;6199835;23;20051;-50
2022/03/25 13:29:01;;;;;;;50.83;25.85;;;;;;;;;;6175481;23;20020;-55
2022/03/25 13:31:27;;;;;;;44.97;23.88;;;;;;;;;;6198763;23;20076;-53
2022/03/25 13:33:53;;;;;;;45.72;21.10;;;;;;;;;;6175751;23;20036;-50
2022/03/25 13:36:29;;;;;;;49.67;25.48;;;;;;;;;;6199305;23;20023;-53
2022/03/25 13:38:55;;;;;;;47.80;23.25;;;;;;;;;;6203110;23;20008;-54
2022/03/25 13:41:21;;;;;;;43.22;22.42;;;;;;;;;;6199902;23;20013;-54
2022/03/25 13:43:48;;;;;;;49.50;25.48;;;;;;;;;;6200834;23;20012;-53
2022/03/25 13:46:20;;;;;;;49.00;25.73;;;;;;;;;;6201377;23;20035;-52
2022/03/25 13:48:47;;;;;;;52.97;26.35;;;;;;;;;;6176710;23;20005;-55
2022/03/25 13:51:23;;;;;;;48.72;25.50;;;;;;;;;;6205428;23;20032;-52
2022/03/25 13:53:49;;;;;;;49.50;24.95;;;;;;;;;;6176790;23;20056;-50
2022/03/25 13:56:16;;;;;;;42.22;22.17;;;;;;;;;;6207224;23;20341;-56
2022/03/25 13:58:56;;;;;;;45.78;23.13;;;;;;;;;;6206346;23;20410;-56
2022/03/25 14:01:32;;;;;;;37.05;19.65;;;;;;;;;;6178847;23;20008;-56
2022/03/25 14:04:05;;;;;;;43.20;22.23;;;;;;;;;;6200915;23;20548;-53
2022/03/25 14:06:49;;;;;;;35.90;18.75;;;;;;;;;;6201157;23;20538;-54
2022/03/25 14:09:26;;;;;;;46.38;20.23;;;;;;;;;;6201659;23;20039;-51
2022/03/25 14:11:51;;;;;;;42.67;18.38;;;;;;;;;;6178571;23;20713;-55
2022/03/25 14:14:46;;;;;;;34.13;16.65;;;;;;;;;;6203644;23;20005;-55